sensor_id;sensor_type;location;lat;lon;timestamp;pressure;altitude;pressure_sealevel;temperature;humidity
30819;BME280;17546;42.674;23.284;2023-04-10T00:01:15;94812.00;;;15.62;38.87
30819;BME280;17546;42.674;23.284;2023-04-10T00:03:41;94823.28;;;15.69;38.42
30819;BME280;17546;42.674;23.284;2023-04-10T00:06:06;94804.69;;;15.59;38.46
30819;BME280;17546;42.674;23.284;2023-04-10T00:08:32;94807.16;;;15.62;37.93
30819;BME280;17546;42.674;23.284;2023-04-10T00:10:57;94800.38;;;15.58;37.78
30819;BME280;17546;42.674;23.284;2023-04-10T00:13:23;94817.44;;;15.73;37.67
30819;BME280;17546;42.674;23.284;2023-04-10T00:15:48;94802.69;;;15.54;37.67
30819;BME280;17546;42.674;23.284;2023-04-10T00:18:15;94791.31;;;15.52;37.07
30819;BME280;17546;42.674;23.284;2023-04-10T00:20:40;94809.44;;;15.64;37.20
30819;BME280;17546;42.674;23.284;2023-04-10T00:23:07;94809.88;;;15.68;37.19
30819;BME280;17546;42.674;23.284;2023-04-10T00:25:33;94787.41;;;15.79;36.88
30819;BME280;17546;42.674;23.284;2023-04-10T00:27:58;94804.38;;;15.81;36.46
30819;BME280;17546;42.674;23.284;2023-04-10T00:30:24;94799.44;;;15.74;36.67
30819;BME280;17546;42.674;23.284;2023-04-10T00:32:49;94786.03;;;15.67;36.49
30819;BME280;17546;42.674;23.284;2023-04-10T00:35:15;94787.78;;;15.51;35.83
30819;BME280;17546;42.674;23.284;2023-04-10T00:37:40;94801.28;;;15.66;35.61
30819;BME280;17546;42.674;23.284;2023-04-10T00:40:06;94806.13;;;15.84;34.93
30819;BME280;17546;42.674;23.284;2023-04-10T00:42:32;94800.69;;;15.92;35.04
30819;BME280;17546;42.674;23.284;2023-04-10T00:44:58;94801.50;;;15.68;34.64
30819;BME280;17546;42.674;23.284;2023-04-10T00:47:24;94796.47;;;15.85;34.34
30819;BME280;17546;42.674;23.284;2023-04-10T00:49:50;94803.53;;;15.67;34.07
30819;BME280;17546;42.674;23.284;2023-04-10T00:52:16;94803.47;;;15.73;34.06
30819;BME280;17546;42.674;23.284;2023-04-10T00:54:42;94798.66;;;15.74;33.80
30819;BME280;17546;42.674;23.284;2023-04-10T00:57:07;94777.34;;;15.52;33.76
30819;BME280;17546;42.674;23.284;2023-04-10T00:59:34;94793.59;;;15.72;33.48
30819;BME280;17546;42.674;23.284;2023-04-10T01:02:00;94778.13;;;15.52;33.07
30819;BME280;17546;42.674;23.284;2023-04-10T01:04:25;94799.94;;;14.91;34.13
30819;BME280;17546;42.674;23.284;2023-04-10T01:06:58;94771.47;;;14.74;34.41
30819;BME280;17546;42.674;23.284;2023-04-10T01:12:14;94796.59;;;14.68;35.96
30819;BME280;17546;42.674;23.284;2023-04-10T01:17:20;94782.41;;;15.34;35.68
30819;BME280;17546;42.674;23.284;2023-04-10T01:22:48;94794.16;;;15.65;35.85
30819;BME280;17546;42.674;23.284;2023-04-10T01:30:46;94781.72;;;15.47;37.06
30819;BME280;17546;42.674;23.284;2023-04-10T01:33:17;94774.56;;;15.52;37.03
30819;BME280;17546;42.674;23.284;2023-04-10T01:35:48;94754.56;;;15.47;37.38
30819;BME280;17546;42.674;23.284;2023-04-10T01:38:19;94762.34;;;15.55;37.50
30819;BME280;17546;42.674;23.284;2023-04-10T01:40:49;94785.22;;;15.72;37.61
30819;BME280;17546;42.674;23.284;2023-04-10T01:43:16;94795.69;;;15.66;37.62
30819;BME280;17546;42.674;23.284;2023-04-10T01:45:45;94767.94;;;15.55;37.63
30819;BME280;17546;42.674;23.284;2023-04-10T01:48:12;94784.84;;;15.81;37.42
30819;BME280;17546;42.674;23.284;2023-04-10T01:50:38;94773.66;;;15.62;37.11
30819;BME280;17546;42.674;23.284;2023-04-10T01:53:05;94788.91;;;15.80;37.32
30819;BME280;17546;42.674;23.284;2023-04-10T01:55:32;94767.16;;;15.54;36.87
30819;BME280;17546;42.674;23.284;2023-04-10T01:57:59;94792.47;;;15.81;36.38
30819;BME280;17546;42.674;23.284;2023-04-10T02:00:26;94789.72;;;15.56;36.66
30819;BME280;17546;42.674;23.284;2023-04-10T02:02:51;94784.53;;;15.47;36.88
30819;BME280;17546;42.674;23.284;2023-04-10T02:05:17;94783.47;;;15.50;36.97
30819;BME280;17546;42.674;23.284;2023-04-10T02:07:50;94758.78;;;14.97;37.67
30819;BME280;17546;42.674;23.284;2023-04-10T02:10:29;94789.81;;;15.50;37.01
30819;BME280;17546;42.674;23.284;2023-04-10T02:13:05;94756.97;;;15.19;37.41
30819;BME280;17546;42.674;23.284;2023-04-10T02:15:49;94772.44;;;15.58;37.74
30819;BME280;17546;42.674;23.284;2023-04-10T02:18:17;94772.91;;;15.62;37.67
30819;BME280;17546;42.674;23.284;2023-04-10T02:20:44;94771.69;;;15.76;37.23
30819;BME280;17546;42.674;23.284;2023-04-10T02:23:09;94775.91;;;15.83;37.06
30819;BME280;17546;42.674;23.284;2023-04-10T02:25:35;94763.53;;;15.78;36.71
30819;BME280;17546;42.674;23.284;2023-04-10T02:28:04;94767.78;;;15.66;36.99
30819;BME280;17546;42.674;23.284;2023-04-10T02:30:30;94741.53;;;15.75;36.76
30819;BME280;17546;42.674;23.284;2023-04-10T02:32:57;94738.19;;;15.76;36.58
30819;BME280;17546;42.674;23.284;2023-04-10T02:35:22;94747.97;;;15.83;35.98
30819;BME280;17546;42.674;23.284;2023-04-10T02:37:48;94752.59;;;15.80;35.89
30819;BME280;17546;42.674;23.284;2023-04-10T02:40:15;94756.31;;;16.02;35.66
30819;BME280;17546;42.674;23.284;2023-04-10T02:42:41;94746.00;;;15.97;35.53
30819;BME280;17546;42.674;23.284;2023-04-10T02:45:07;94746.19;;;15.85;35.76
30819;BME280;17546;42.674;23.284;2023-04-10T02:47:34;94723.44;;;15.43;35.89
30819;BME280;17546;42.674;23.284;2023-04-10T02:50:00;94732.00;;;15.64;35.89
30819;BME280;17546;42.674;23.284;2023-04-10T02:52:25;94736.91;;;15.77;36.01
30819;BME280;17546;42.674;23.284;2023-04-10T02:54:51;94721.78;;;15.67;36.08
30819;BME280;17546;42.674;23.284;2023-04-10T02:57:16;94712.38;;;15.70;36.20
30819;BME280;17546;42.674;23.284;2023-04-10T02:59:42;94733.66;;;15.73;36.42
30819;BME280;17546;42.674;23.284;2023-04-10T03:02:07;94723.72;;;15.40;36.58
30819;BME280;17546;42.674;23.284;2023-04-10T03:04:33;94715.66;;;15.36;36.71
30819;BME280;17546;42.674;23.284;2023-04-10T03:06:58;94712.28;;;15.43;36.65
30819;BME280;17546;42.674;23.284;2023-04-10T03:09:24;94732.00;;;15.83;36.44
30819;BME280;17546;42.674;23.284;2023-04-10T03:11:50;94731.22;;;15.83;36.54
30819;BME280;17546;42.674;23.284;2023-04-10T03:14:16;94709.81;;;15.53;36.50
30819;BME280;17546;42.674;23.284;2023-04-10T03:16:42;94739.09;;;15.65;36.66
30819;BME280;17546;42.674;23.284;2023-04-10T03:19:07;94737.56;;;15.64;36.72
30819;BME280;17546;42.674;23.284;2023-04-10T03:21:32;94741.81;;;15.71;36.79
30819;BME280;17546;42.674;23.284;2023-04-10T03:23:58;94748.84;;;15.59;36.81
30819;BME280;17546;42.674;23.284;2023-04-10T03:26:23;94740.59;;;15.47;37.03
30819;BME280;17546;42.674;23.284;2023-04-10T03:28:49;94738.22;;;15.19;37.64
30819;BME280;17546;42.674;23.284;2023-04-10T03:31:15;94722.47;;;15.22;37.54
30819;BME280;17546;42.674;23.284;2023-04-10T03:33:40;94730.22;;;15.48;37.43
30819;BME280;17546;42.674;23.284;2023-04-10T03:36:06;94731.19;;;15.50;37.23
30819;BME280;17546;42.674;23.284;2023-04-10T03:38:32;94742.41;;;15.64;37.34
30819;BME280;17546;42.674;23.284;2023-04-10T03:40:57;94747.25;;;15.63;37.70
30819;BME280;17546;42.674;23.284;2023-04-10T03:43:23;94748.44;;;15.68;37.75
30819;BME280;17546;42.674;23.284;2023-04-10T03:45:49;94754.94;;;15.76;37.57
30819;BME280;17546;42.674;23.284;2023-04-10T03:48:15;94754.78;;;15.68;38.08
30819;BME280;17546;42.674;23.284;2023-04-10T03:50:42;94755.84;;;15.65;38.59
30819;BME280;17546;42.674;23.284;2023-04-10T03:53:08;94730.78;;;15.60;39.00
30819;BME280;17546;42.674;23.284;2023-04-10T03:55:36;94733.16;;;15.18;40.25
30819;BME280;17546;42.674;23.284;2023-04-10T03:58:03;94752.22;;;15.52;40.04
30819;BME280;17546;42.674;23.284;2023-04-10T04:00:28;94748.78;;;15.26;40.73
30819;BME280;17546;42.674;23.284;2023-04-10T04:02:54;94767.78;;;15.28;40.68
30819;BME280;17546;42.674;23.284;2023-04-10T04:05:19;94759.44;;;15.03;41.43
30819;BME280;17546;42.674;23.284;2023-04-10T04:07:45;94769.25;;;14.91;41.92
30819;BME280;17546;42.674;23.284;2023-04-10T04:10:10;94744.25;;;15.04;41.12
30819;BME280;17546;42.674;23.284;2023-04-10T04:12:36;94764.44;;;15.29;41.05
30819;BME280;17546;42.674;23.284;2023-04-10T04:15:01;94768.03;;;15.30;40.98
30819;BME280;17546;42.674;23.284;2023-04-10T04:17:27;94769.97;;;15.35;40.75
30819;BME280;17546;42.674;23.284;2023-04-10T04:19:52;94763.69;;;15.29;40.86
30819;BME280;17546;42.674;23.284;2023-04-10T04:22:19;94749.38;;;15.19;41.00
30819;BME280;17546;42.674;23.284;2023-04-10T04:24:45;94767.63;;;15.39;40.48
30819;BME280;17546;42.674;23.284;2023-04-10T04:27:10;94764.00;;;15.44;40.80
30819;BME280;17546;42.674;23.284;2023-04-10T04:29:35;94771.25;;;15.34;40.79
30819;BME280;17546;42.674;23.284;2023-04-10T04:32:01;94775.78;;;15.37;40.60
30819;BME280;17546;42.674;23.284;2023-04-10T04:34:26;94777.88;;;15.31;40.89
30819;BME280;17546;42.674;23.284;2023-04-10T04:36:52;94777.91;;;14.33;42.88
30819;BME280;17546;42.674;23.284;2023-04-10T04:39:17;94756.22;;;14.50;42.31
30819;BME280;17546;42.674;23.284;2023-04-10T04:41:43;94784.34;;;14.22;42.99
30819;BME280;17546;42.674;23.284;2023-04-10T04:44:08;94785.44;;;13.77;44.03
30819;BME280;17546;42.674;23.284;2023-04-10T04:46:34;94777.63;;;14.36;42.55
30819;BME280;17546;42.674;23.284;2023-04-10T04:48:59;94797.59;;;14.95;41.64
30819;BME280;17546;42.674;23.284;2023-04-10T04:51:25;94790.13;;;14.84;41.80
30819;BME280;17546;42.674;23.284;2023-04-10T04:53:51;94770.75;;;14.92;41.39
30819;BME280;17546;42.674;23.284;2023-04-10T04:56:16;94778.03;;;15.20;41.15
30819;BME280;17546;42.674;23.284;2023-04-10T04:58:42;94781.66;;;15.34;40.72
30819;BME280;17546;42.674;23.284;2023-04-10T05:01:08;94801.22;;;15.53;40.68
30819;BME280;17546;42.674;23.284;2023-04-10T05:03:34;94793.88;;;15.31;40.57
30819;BME280;17546;42.674;23.284;2023-04-10T05:06:00;94793.72;;;15.23;40.29
30819;BME280;17546;42.674;23.284;2023-04-10T05:08:25;94800.97;;;15.32;40.24
30819;BME280;17546;42.674;23.284;2023-04-10T05:10:51;94800.91;;;15.37;40.25
30819;BME280;17546;42.674;23.284;2023-04-10T05:13:16;94798.47;;;15.47;40.29
30819;BME280;17546;42.674;23.284;2023-04-10T05:15:43;94804.38;;;15.43;40.09
30819;BME280;17546;42.674;23.284;2023-04-10T05:18:08;94780.69;;;15.31;39.80
30819;BME280;17546;42.674;23.284;2023-04-10T05:20:34;94794.84;;;15.33;39.69
30819;BME280;17546;42.674;23.284;2023-04-10T05:23:00;94807.47;;;15.59;39.41
30819;BME280;17546;42.674;23.284;2023-04-10T05:25:26;94806.28;;;15.73;39.33
30819;BME280;17546;42.674;23.284;2023-04-10T05:27:51;94787.47;;;15.36;39.48
30819;BME280;17546;42.674;23.284;2023-04-10T05:30:17;94810.09;;;15.70;39.02
30819;BME280;17546;42.674;23.284;2023-04-10T05:32:42;94803.00;;;15.69;39.12
30819;BME280;17546;42.674;23.284;2023-04-10T05:35:08;94782.41;;;15.53;38.78
30819;BME280;17546;42.674;23.284;2023-04-10T05:37:33;94801.28;;;15.47;39.07
30819;BME280;17546;42.674;23.284;2023-04-10T05:39:59;94801.72;;;15.51;38.74
30819;BME280;17546;42.674;23.284;2023-04-10T05:42:24;94810.63;;;15.68;38.50
30819;BME280;17546;42.674;23.284;2023-04-10T05:44:51;94782.78;;;15.63;38.59
30819;BME280;17546;42.674;23.284;2023-04-10T05:47:17;94804.00;;;15.72;38.48
30819;BME280;17546;42.674;23.284;2023-04-10T05:49:42;94798.25;;;15.64;38.34
30819;BME280;17546;42.674;23.284;2023-04-10T05:52:08;94780.91;;;15.71;38.34
30819;BME280;17546;42.674;23.284;2023-04-10T05:54:33;94783.47;;;15.50;38.45
30819;BME280;17546;42.674;23.284;2023-04-10T05:56:59;94809.75;;;15.79;38.37
30819;BME280;17546;42.674;23.284;2023-04-10T05:59:25;94789.28;;;15.90;38.27
30819;BME280;17546;42.674;23.284;2023-04-10T06:01:51;94810.75;;;16.14;38.44
30819;BME280;17546;42.674;23.284;2023-04-10T06:04:16;94815.16;;;15.90;38.48
30819;BME280;17546;42.674;23.284;2023-04-10T06:06:42;94815.09;;;15.39;39.13
30819;BME280;17546;42.674;23.284;2023-04-10T06:09:07;94784.63;;;14.98;40.03
30819;BME280;17546;42.674;23.284;2023-04-10T06:11:32;94813.38;;;15.74;38.68
30819;BME280;17546;42.674;23.284;2023-04-10T06:13:58;94795.84;;;15.93;38.36
30819;BME280;17546;42.674;23.284;2023-04-10T06:16:23;94817.31;;;16.17;38.55
30819;BME280;17546;42.674;23.284;2023-04-10T06:18:49;94815.63;;;15.95;39.20
30819;BME280;17546;42.674;23.284;2023-04-10T06:21:16;94784.84;;;15.43;40.10
30819;BME280;17546;42.674;23.284;2023-04-10T06:23:42;94806.84;;;15.47;39.98
30819;BME280;17546;42.674;23.284;2023-04-10T06:26:08;94801.59;;;15.43;40.13
30819;BME280;17546;42.674;23.284;2023-04-10T06:28:34;94786.34;;;15.63;39.60
30819;BME280;17546;42.674;23.284;2023-04-10T06:30:59;94796.59;;;15.36;40.37
30819;BME280;17546;42.674;23.284;2023-04-10T06:33:28;94804.38;;;15.43;40.41
30819;BME280;17546;42.674;23.284;2023-04-10T06:35:53;94799.25;;;15.85;39.31
30819;BME280;17546;42.674;23.284;2023-04-10T06:38:20;94809.47;;;16.15;39.09
30819;BME280;17546;42.674;23.284;2023-04-10T06:40:45;94809.47;;;16.15;38.79
30819;BME280;17546;42.674;23.284;2023-04-10T06:43:10;94795.06;;;16.24;38.71
30819;BME280;17546;42.674;23.284;2023-04-10T06:45:36;94797.03;;;15.97;38.79
30819;BME280;17546;42.674;23.284;2023-04-10T06:48:01;94808.38;;;16.18;38.79
30819;BME280;17546;42.674;23.284;2023-04-10T06:50:27;94812.28;;;16.28;38.44
30819;BME280;17546;42.674;23.284;2023-04-10T06:52:52;94812.78;;;16.46;38.56
30819;BME280;17546;42.674;23.284;2023-04-10T06:55:20;94816.09;;;16.44;37.85
30819;BME280;17546;42.674;23.284;2023-04-10T06:57:45;94814.34;;;16.73;37.47
30819;BME280;17546;42.674;23.284;2023-04-10T07:00:11;94825.94;;;16.78;37.70
30819;BME280;17546;42.674;23.284;2023-04-10T07:02:36;94822.50;;;16.58;37.44
30819;BME280;17546;42.674;23.284;2023-04-10T07:05:02;94822.56;;;16.20;37.74
30819;BME280;17546;42.674;23.284;2023-04-10T07:07:27;94821.38;;;16.48;37.38
30819;BME280;17546;42.674;23.284;2023-04-10T07:09:53;94820.53;;;16.66;37.23
30819;BME280;17546;42.674;23.284;2023-04-10T07:12:18;94818.53;;;16.67;36.92
30819;BME280;17546;42.674;23.284;2023-04-10T07:14:44;94814.28;;;16.47;37.54
30819;BME280;17546;42.674;23.284;2023-04-10T07:17:10;94807.88;;;16.65;37.14
30819;BME280;17546;42.674;23.284;2023-04-10T07:19:35;94804.19;;;16.57;36.85
30819;BME280;17546;42.674;23.284;2023-04-10T07:22:02;94814.91;;;16.40;36.71
30819;BME280;17546;42.674;23.284;2023-04-10T07:24:28;94816.97;;;16.52;37.17
30819;BME280;17546;42.674;23.284;2023-04-10T07:26:54;94815.78;;;16.48;37.00
30819;BME280;17546;42.674;23.284;2023-04-10T07:29:21;94812.75;;;16.32;36.94
30819;BME280;17546;42.674;23.284;2023-04-10T07:31:46;94802.88;;;16.45;36.80
30819;BME280;17546;42.674;23.284;2023-04-10T07:34:12;94822.13;;;16.48;36.71
30819;BME280;17546;42.674;23.284;2023-04-10T07:36:37;94826.88;;;16.53;36.83
30819;BME280;17546;42.674;23.284;2023-04-10T07:39:03;94811.81;;;16.43;36.93
30819;BME280;17546;42.674;23.284;2023-04-10T07:41:28;94824.88;;;16.67;36.56
30819;BME280;17546;42.674;23.284;2023-04-10T07:43:54;94813.53;;;16.60;36.62
30819;BME280;17546;42.674;23.284;2023-04-10T07:46:19;94820.81;;;16.82;36.67
30819;BME280;17546;42.674;23.284;2023-04-10T07:48:45;94825.94;;;16.78;36.43
30819;BME280;17546;42.674;23.284;2023-04-10T07:51:12;94807.84;;;16.52;37.08
30819;BME280;17546;42.674;23.284;2023-04-10T07:53:38;94798.81;;;16.59;36.63
30819;BME280;17546;42.674;23.284;2023-04-10T07:56:04;94817.88;;;16.61;36.24
30819;BME280;17546;42.674;23.284;2023-04-10T07:58:29;94801.06;;;16.15;37.05
30819;BME280;17546;42.674;23.284;2023-04-10T08:00:56;94816.13;;;16.71;36.06
30819;BME280;17546;42.674;23.284;2023-04-10T08:03:21;94811.81;;;17.02;36.09
30819;BME280;17546;42.674;23.284;2023-04-10T08:05:47;94812.88;;;16.99;35.83
30819;BME280;17546;42.674;23.284;2023-04-10T08:08:15;94800.81;;;17.04;35.99
30819;BME280;17546;42.674;23.284;2023-04-10T08:10:40;94812.63;;;17.24;35.86
30819;BME280;17546;42.674;23.284;2023-04-10T08:13:06;94818.69;;;17.14;35.80
30819;BME280;17546;42.674;23.284;2023-04-10T08:15:32;94809.22;;;17.31;35.54
30819;BME280;17546;42.674;23.284;2023-04-10T08:17:57;94817.41;;;17.16;35.66
30819;BME280;17546;42.674;23.284;2023-04-10T08:20:23;94816.94;;;17.38;35.42
30819;BME280;17546;42.674;23.284;2023-04-10T08:22:48;94826.19;;;17.60;35.10
30819;BME280;17546;42.674;23.284;2023-04-10T08:25:13;94818.69;;;17.14;35.29
30819;BME280;17546;42.674;23.284;2023-04-10T08:27:39;94801.88;;;17.14;35.51
30819;BME280;17546;42.674;23.284;2023-04-10T08:30:05;94816.81;;;17.44;35.68
30819;BME280;17546;42.674;23.284;2023-04-10T08:32:31;94819.31;;;17.34;35.29
30819;BME280;17546;42.674;23.284;2023-04-10T08:34:56;94817.81;;;17.06;35.51
30819;BME280;17546;42.674;23.284;2023-04-10T08:37:21;94812.84;;;17.26;35.99
30819;BME280;17546;42.674;23.284;2023-04-10T08:39:47;94821.59;;;17.35;35.87
30819;BME280;17546;42.674;23.284;2023-04-10T08:42:12;94790.91;;;17.17;35.83
30819;BME280;17546;42.674;23.284;2023-04-10T08:44:38;94818.22;;;17.37;35.41
30819;BME280;17546;42.674;23.284;2023-04-10T08:47:06;94808.34;;;17.23;35.64
30819;BME280;17546;42.674;23.284;2023-04-10T08:49:57;94814.03;;;16.90;35.83
30819;BME280;17546;42.674;23.284;2023-04-10T08:52:29;94810.81;;;16.86;35.92
30819;BME280;17546;42.674;23.284;2023-04-10T08:54:59;94797.16;;;17.09;35.99
30819;BME280;17546;42.674;23.284;2023-04-10T08:57:27;94799.53;;;17.05;36.39
30819;BME280;17546;42.674;23.284;2023-04-10T08:59:53;94784.66;;;16.84;35.98
30819;BME280;17546;42.674;23.284;2023-04-10T09:02:20;94799.25;;;17.43;35.66
30819;BME280;17546;42.674;23.284;2023-04-10T09:04:50;94800.44;;;17.48;35.28
30819;BME280;17546;42.674;23.284;2023-04-10T09:07:16;94803.78;;;17.60;34.73
30819;BME280;17546;42.674;23.284;2023-04-10T09:09:42;94800.63;;;17.63;35.09
30819;BME280;17546;42.674;23.284;2023-04-10T09:12:07;94772.44;;;17.48;34.84
30819;BME280;17546;42.674;23.284;2023-04-10T09:14:36;94785.94;;;17.36;35.36
30819;BME280;17546;42.674;23.284;2023-04-10T09:19:45;94766.75;;;17.74;34.94
30819;BME280;17546;42.674;23.284;2023-04-10T09:22:12;94768.72;;;16.65;36.10
30819;BME280;17546;42.674;23.284;2023-04-10T09:24:38;94778.00;;;16.87;36.08
30819;BME280;17546;42.674;23.284;2023-04-10T09:27:05;94779.63;;;16.82;36.15
30819;BME280;17546;42.674;23.284;2023-04-10T09:29:57;94785.53;;;16.92;35.71
30819;BME280;17546;42.674;23.284;2023-04-10T09:35:04;94779.41;;;17.07;34.72
30819;BME280;17546;42.674;23.284;2023-04-10T09:37:34;94754.44;;;17.56;34.41
30819;BME280;17546;42.674;23.284;2023-04-10T09:40:00;94758.53;;;17.90;34.33
30819;BME280;17546;42.674;23.284;2023-04-10T09:42:36;94756.91;;;17.94;34.52
30819;BME280;17546;42.674;23.284;2023-04-10T09:45:03;94773.63;;;18.21;33.13
30819;BME280;17546;42.674;23.284;2023-04-10T09:47:30;94777.19;;;17.53;33.86
30819;BME280;17546;42.674;23.284;2023-04-10T09:49:57;94767.44;;;18.02;33.88
30819;BME280;17546;42.674;23.284;2023-04-10T09:52:29;94783.91;;;18.05;33.75
30819;BME280;17546;42.674;23.284;2023-04-10T09:54:57;94774.69;;;18.18;33.41
30819;BME280;17546;42.674;23.284;2023-04-10T09:57:25;94771.75;;;18.24;33.33
30819;BME280;17546;42.674;23.284;2023-04-10T09:59:52;94774.00;;;18.25;33.14
30819;BME280;17546;42.674;23.284;2023-04-10T10:02:24;94761.44;;;17.98;33.49
30819;BME280;17546;42.674;23.284;2023-04-10T10:04:50;94764.31;;;18.26;33.04
30819;BME280;17546;42.674;23.284;2023-04-10T10:07:18;94760.06;;;18.33;33.03
30819;BME280;17546;42.674;23.284;2023-04-10T10:09:45;94751.72;;;17.99;32.33
30819;BME280;17546;42.674;23.284;2023-04-10T10:12:15;94765.94;;;18.43;32.25
30819;BME280;17546;42.674;23.284;2023-04-10T10:20:23;94752.84;;;18.95;31.71
30819;BME280;17546;42.674;23.284;2023-04-10T10:22:51;94754.66;;;18.14;32.09
30819;BME280;17546;42.674;23.284;2023-04-10T10:25:18;94752.63;;;17.80;32.40
30819;BME280;17546;42.674;23.284;2023-04-10T10:27:48;94757.66;;;17.61;32.96
30819;BME280;17546;42.674;23.284;2023-04-10T10:30:16;94724.25;;;17.63;32.72
30819;BME280;17546;42.674;23.284;2023-04-10T10:32:44;94742.56;;;17.98;32.85
30819;BME280;17546;42.674;23.284;2023-04-10T10:35:11;94743.84;;;18.39;32.73
30819;BME280;17546;42.674;23.284;2023-04-10T10:37:38;94740.69;;;17.80;32.43
30819;BME280;17546;42.674;23.284;2023-04-10T10:45:17;94740.59;;;18.56;31.79
30819;BME280;17546;42.674;23.284;2023-04-10T10:47:49;94715.84;;;18.75;31.89
30819;BME280;17546;42.674;23.284;2023-04-10T10:50:15;94726.38;;;17.70;33.02
30819;BME280;17546;42.674;23.284;2023-04-10T10:52:51;94705.84;;;18.09;32.29
30819;BME280;17546;42.674;23.284;2023-04-10T10:58:01;94713.16;;;17.91;32.06
30819;BME280;17546;42.674;23.284;2023-04-10T11:05:54;94706.59;;;18.59;31.73
30819;BME280;17546;42.674;23.284;2023-04-10T11:11:28;94700.59;;;17.85;31.86
30819;BME280;17546;42.674;23.284;2023-04-10T11:19:01;94683.38;;;18.02;31.51
30819;BME280;17546;42.674;23.284;2023-04-10T11:21:28;94695.91;;;18.58;31.12
30819;BME280;17546;42.674;23.284;2023-04-10T11:31:37;94679.47;;;18.91;31.50
30819;BME280;17546;42.674;23.284;2023-04-10T11:34:07;94666.25;;;18.99;31.23
30819;BME280;17546;42.674;23.284;2023-04-10T11:36:41;94683.19;;;18.28;32.03
30819;BME280;17546;42.674;23.284;2023-04-10T11:39:09;94674.28;;;18.95;31.72
30819;BME280;17546;42.674;23.284;2023-04-10T11:41:40;94680.91;;;18.19;31.70
30819;BME280;17546;42.674;23.284;2023-04-10T11:44:14;94681.75;;;17.72;32.40
30819;BME280;17546;42.674;23.284;2023-04-10T11:46:42;94678.41;;;17.52;32.63
30819;BME280;17546;42.674;23.284;2023-04-10T11:49:09;94686.63;;;18.13;32.17
30819;BME280;17546;42.674;23.284;2023-04-10T11:51:36;94686.59;;;17.85;32.47
30819;BME280;17546;42.674;23.284;2023-04-10T11:54:12;94663.81;;;18.09;32.69
30819;BME280;17546;42.674;23.284;2023-04-10T11:56:39;94661.63;;;17.94;32.34
30819;BME280;17546;42.674;23.284;2023-04-10T11:59:06;94671.19;;;18.77;31.38
30819;BME280;17546;42.674;23.284;2023-04-10T12:01:35;94655.66;;;18.19;32.22
30819;BME280;17546;42.674;23.284;2023-04-10T12:04:01;94675.13;;;18.25;32.47
30819;BME280;17546;42.674;23.284;2023-04-10T12:06:27;94658.03;;;17.31;33.51
30819;BME280;17546;42.674;23.284;2023-04-10T12:08:53;94668.19;;;17.55;32.70
30819;BME280;17546;42.674;23.284;2023-04-10T12:11:20;94672.28;;;18.17;32.58
30819;BME280;17546;42.674;23.284;2023-04-10T12:13:47;94646.91;;;17.04;33.25
30819;BME280;17546;42.674;23.284;2023-04-10T12:16:15;94662.25;;;18.29;32.48
30819;BME280;17546;42.674;23.284;2023-04-10T12:18:41;94674.78;;;17.44;33.47
30819;BME280;17546;42.674;23.284;2023-04-10T12:21:09;94673.94;;;17.91;32.77
30819;BME280;17546;42.674;23.284;2023-04-10T12:23:36;94666.91;;;17.43;34.06
30819;BME280;17546;42.674;23.284;2023-04-10T12:28:38;94686.38;;;17.14;36.38
30819;BME280;17546;42.674;23.284;2023-04-10T12:31:03;94708.06;;;16.60;39.66
30819;BME280;17546;42.674;23.284;2023-04-10T12:33:29;94708.66;;;16.40;41.22
30819;BME280;17546;42.674;23.284;2023-04-10T12:35:55;94707.97;;;16.07;41.38
30819;BME280;17546;42.674;23.284;2023-04-10T12:41:05;94711.31;;;15.73;44.37
30819;BME280;17546;42.674;23.284;2023-04-10T12:43:39;94700.59;;;15.26;44.90
30819;BME280;17546;42.674;23.284;2023-04-10T12:46:06;94694.03;;;15.04;45.88
30819;BME280;17546;42.674;23.284;2023-04-10T12:48:36;94701.31;;;15.45;45.62
30819;BME280;17546;42.674;23.284;2023-04-10T12:51:02;94701.94;;;14.08;45.37
30819;BME280;17546;42.674;23.284;2023-04-10T12:53:28;94673.84;;;14.55;43.50
30819;BME280;17546;42.674;23.284;2023-04-10T12:56:04;94665.44;;;15.17;42.64
30819;BME280;17546;42.674;23.284;2023-04-10T12:58:31;94676.75;;;15.25;41.66
30819;BME280;17546;42.674;23.284;2023-04-10T13:01:01;94677.66;;;15.65;41.21
30819;BME280;17546;42.674;23.284;2023-04-10T13:03:27;94688.34;;;15.29;43.27
30819;BME280;17546;42.674;23.284;2023-04-10T13:05:53;94692.72;;;15.43;43.21
30819;BME280;17546;42.674;23.284;2023-04-10T13:08:19;94681.56;;;16.08;41.49
30819;BME280;17546;42.674;23.284;2023-04-10T13:10:45;94672.34;;;16.40;41.33
30819;BME280;17546;42.674;23.284;2023-04-10T13:13:14;94670.94;;;16.60;42.36
30819;BME280;17546;42.674;23.284;2023-04-10T13:15:39;94676.94;;;16.77;42.39
30819;BME280;17546;42.674;23.284;2023-04-10T13:18:05;94666.44;;;16.83;41.35
30819;BME280;17546;42.674;23.284;2023-04-10T13:20:33;94641.75;;;16.95;41.45
30819;BME280;17546;42.674;23.284;2023-04-10T13:22:59;94665.03;;;16.63;40.71
30819;BME280;17546;42.674;23.284;2023-04-10T13:25:26;94667.81;;;16.63;40.78
30819;BME280;17546;42.674;23.284;2023-04-10T13:27:52;94660.91;;;16.78;40.10
30819;BME280;17546;42.674;23.284;2023-04-10T13:30:17;94633.72;;;16.65;39.87
30819;BME280;17546;42.674;23.284;2023-04-10T13:32:42;94658.53;;;16.02;41.03
30819;BME280;17546;42.674;23.284;2023-04-10T13:35:08;94658.56;;;16.42;40.09
30819;BME280;17546;42.674;23.284;2023-04-10T13:37:33;94647.50;;;16.36;40.32
30819;BME280;17546;42.674;23.284;2023-04-10T13:39:59;94647.31;;;17.08;39.53
30819;BME280;17546;42.674;23.284;2023-04-10T13:42:25;94641.63;;;17.35;38.93
30819;BME280;17546;42.674;23.284;2023-04-10T13:44:50;94641.72;;;17.64;38.98
30819;BME280;17546;42.674;23.284;2023-04-10T13:47:15;94641.59;;;17.14;38.54